createdAt,value
2023-01-29T00:00:12.688Z,4.40
2023-01-29T00:03:00.381Z,5.40
2023-01-29T00:05:28.752Z,6.20
2023-01-29T00:07:57.411Z,5.00
2023-01-29T00:10:25.766Z,4.10
2023-01-29T00:12:58.368Z,4.50
2023-01-29T00:15:26.130Z,5.00
2023-01-29T00:17:53.833Z,4.90
2023-01-29T00:20:21.579Z,5.30
2023-01-29T00:22:49.551Z,4.90
2023-01-29T00:25:17.357Z,5.40
2023-01-29T00:27:45.181Z,4.50
2023-01-29T00:30:13.815Z,5.10
2023-01-29T00:32:42.138Z,3.50
2023-01-29T00:35:10.369Z,3.60
2023-01-29T00:37:38.506Z,3.10
2023-01-29T00:40:07.451Z,2.60
2023-01-29T00:42:54.185Z,2.80
2023-01-29T00:45:22.042Z,4.50
2023-01-29T00:47:49.677Z,4.10
2023-01-29T00:50:17.924Z,3.20
2023-01-29T00:52:45.875Z,3.60
2023-01-29T00:55:13.501Z,2.80
2023-01-29T00:57:43.941Z,2.60
2023-01-29T01:00:17.126Z,2.60
2023-01-29T01:03:04.150Z,1.80
2023-01-29T01:05:32.399Z,1.80
2023-01-29T01:08:00.196Z,2.70
2023-01-29T01:10:33.080Z,2.30
2023-01-29T01:13:07.365Z,2.60
2023-01-29T01:15:40.142Z,2.20
2023-01-29T01:18:07.920Z,2.30
2023-01-29T01:20:36.614Z,1.60
2023-01-29T01:23:04.529Z,2.60
2023-01-29T01:25:32.734Z,2.80
2023-01-29T01:28:03.121Z,3.20
2023-01-29T01:30:30.931Z,2.50
2023-01-29T01:32:58.671Z,3.80
2023-01-29T01:35:26.450Z,4.70
2023-01-29T01:37:54.355Z,4.70
2023-01-29T01:40:25.248Z,5.30
2023-01-29T01:43:00.439Z,4.80
2023-01-29T01:45:36.564Z,4.40
2023-01-29T01:48:15.321Z,3.20
2023-01-29T01:50:52.754Z,3.40
2023-01-29T01:53:29.158Z,3.00
2023-01-29T01:56:03.491Z,4.70
2023-01-29T01:58:38.185Z,4.00
2023-01-29T02:01:12.804Z,4.30
2023-01-29T02:04:15.321Z,3.30
2023-01-29T02:07:03.121Z,2.20
2023-01-29T02:09:42.307Z,3.40
2023-01-29T02:12:14.398Z,3.70
2023-01-29T02:14:44.728Z,3.90
2023-01-29T02:17:16.693Z,3.50
2023-01-29T02:20:06.687Z,3.70
2023-01-29T02:23:17.517Z,3.20
2023-01-29T02:26:26.570Z,4.20
2023-01-29T02:29:27.175Z,3.30
2023-01-29T02:32:25.822Z,3.00
2023-01-29T02:35:28.653Z,2.50
2023-01-29T02:38:25.098Z,3.00
2023-01-29T02:41:00.363Z,4.00
2023-01-29T02:43:50.302Z,4.00
2023-01-29T02:46:58.617Z,5.20
2023-01-29T02:49:49.016Z,5.30
2023-01-29T02:52:23.203Z,4.90
2023-01-29T02:54:56.486Z,5.10
2023-01-29T02:57:29.606Z,5.10
2023-01-29T03:00:07.416Z,4.60
2023-01-29T03:02:53.207Z,4.20
2023-01-29T03:05:44.903Z,5.20
2023-01-29T03:08:23.045Z,5.30
2023-01-29T03:10:58.698Z,4.90
2023-01-29T03:13:43.907Z,4.90
2023-01-29T03:16:31.541Z,3.90
2023-01-29T03:19:11.553Z,3.90
2023-01-29T03:21:53.715Z,3.90
2023-01-29T03:24:54.123Z,4.90
2023-01-29T03:27:49.075Z,5.00
2023-01-29T03:30:38.000Z,4.00
2023-01-29T03:33:11.211Z,4.50
2023-01-29T03:35:53.724Z,3.90
2023-01-29T03:38:21.614Z,4.30
2023-01-29T03:40:54.941Z,4.10
2023-01-29T03:43:45.670Z,6.10
2023-01-29T03:46:29.133Z,6.20
2023-01-29T03:49:12.198Z,5.10
2023-01-29T03:52:06.265Z,5.10
2023-01-29T03:55:01.599Z,5.30
2023-01-29T03:58:01.349Z,5.10
2023-01-29T04:00:40.161Z,6.40
2023-01-29T04:03:21.407Z,5.60
2023-01-29T04:06:09.831Z,5.90
2023-01-29T04:08:51.185Z,4.80
2023-01-29T04:11:23.395Z,4.90
2023-01-29T04:13:52.746Z,5.30
2023-01-29T04:16:35.833Z,5.10
2023-01-29T04:19:06.652Z,5.00
2023-01-29T04:21:37.674Z,4.70
2023-01-29T04:24:08.225Z,5.30
2023-01-29T04:27:15.512Z,4.00
2023-01-29T04:30:41.891Z,4.20
2023-01-29T04:33:40.199Z,4.30
2023-01-29T04:36:21.641Z,3.20
2023-01-29T04:39:25.807Z,6.10
2023-01-29T04:42:03.217Z,7.50
2023-01-29T04:45:06.758Z,6.50
2023-01-29T04:48:00.723Z,5.20
2023-01-29T04:50:41.984Z,5.30
2023-01-29T04:53:44.387Z,4.60
2023-01-29T04:56:39.119Z,5.80
2023-01-29T04:59:17.697Z,6.40
2023-01-29T05:01:46.321Z,4.70
2023-01-29T05:04:19.756Z,4.90
2023-01-29T05:06:48.864Z,5.00
2023-01-29T05:09:17.917Z,5.40
2023-01-29T05:11:49.213Z,5.00
2023-01-29T05:14:19.845Z,5.30
2023-01-29T05:16:53.718Z,5.00
2023-01-29T05:19:21.407Z,6.90
2023-01-29T05:21:50.408Z,8.10
2023-01-29T05:24:27.316Z,8.20
2023-01-29T05:27:14.019Z,7.50
2023-01-29T05:29:46.970Z,6.40
2023-01-29T05:32:16.023Z,6.70
2023-01-29T05:34:43.757Z,6.50
2023-01-29T05:37:11.523Z,7.20
2023-01-29T05:39:39.265Z,7.20
2023-01-29T05:42:07.592Z,7.10
2023-01-29T05:44:35.316Z,6.50
2023-01-29T05:47:03.031Z,7.10
2023-01-29T05:49:30.780Z,6.70
2023-01-29T05:51:58.490Z,6.20
2023-01-29T05:54:26.221Z,7.70
2023-01-29T05:56:54.443Z,7.60
2023-01-29T05:59:22.275Z,8.90
2023-01-29T06:01:50.039Z,8.90
2023-01-29T06:04:17.731Z,8.90
2023-01-29T06:06:45.476Z,7.90
2023-01-29T06:09:13.265Z,9.70
2023-01-29T06:11:40.955Z,8.40
2023-01-29T06:14:08.740Z,9.10
2023-01-29T06:16:36.811Z,7.50
2023-01-29T06:19:04.593Z,7.00
2023-01-29T06:21:32.587Z,8.80
2023-01-29T06:24:00.439Z,9.30
2023-01-29T06:26:28.095Z,7.30
2023-01-29T06:28:55.904Z,8.70
2023-01-29T06:31:37.322Z,10.20
2023-01-29T06:34:08.177Z,10.00
2023-01-29T06:36:38.345Z,8.10
2023-01-29T06:39:05.998Z,8.50
2023-01-29T06:41:34.822Z,7.70
2023-01-29T06:44:02.604Z,7.90
2023-01-29T06:46:30.378Z,7.70
2023-01-29T06:49:00.615Z,7.40
2023-01-29T06:51:28.427Z,9.20
2023-01-29T06:53:56.572Z,8.00
2023-01-29T06:56:25.271Z,7.40
2023-01-29T06:58:53.045Z,6.90
2023-01-29T07:01:34.682Z,7.10
2023-01-29T07:04:03.814Z,8.60
2023-01-29T07:06:32.686Z,9.60
2023-01-29T07:09:00.459Z,9.60
2023-01-29T07:11:28.165Z,8.90
2023-01-29T07:13:56.179Z,7.80
2023-01-29T07:16:25.010Z,7.90
2023-01-29T07:18:52.780Z,9.20
2023-01-29T07:21:20.600Z,8.80
2023-01-29T07:23:48.326Z,8.60
2023-01-29T07:26:16.969Z,8.80
2023-01-29T07:28:44.626Z,7.90
2023-01-29T07:31:14.844Z,7.80
2023-01-29T07:33:46.462Z,6.50
2023-01-29T07:36:14.890Z,6.90
2023-01-29T07:38:42.717Z,10.20
2023-01-29T07:41:11.794Z,11.30
2023-01-29T07:43:39.564Z,10.70
2023-01-29T07:46:07.695Z,11.30
2023-01-29T07:48:36.066Z,9.90
2023-01-29T07:51:04.088Z,7.90
2023-01-29T07:53:31.830Z,8.10
2023-01-29T07:55:59.544Z,8.30
2023-01-29T07:58:27.256Z,7.30
2023-01-29T08:00:55.288Z,7.10
2023-01-29T08:03:23.053Z,6.50
2023-01-29T08:05:50.782Z,7.10
2023-01-29T08:08:19.427Z,5.60
2023-01-29T08:10:47.205Z,7.00
2023-01-29T08:13:15.088Z,10.00
2023-01-29T08:15:45.483Z,8.50
2023-01-29T08:18:14.953Z,11.50
2023-01-29T08:20:42.677Z,9.30
2023-01-29T08:23:16.625Z,9.90
2023-01-29T08:25:44.762Z,6.90
2023-01-29T08:28:12.697Z,6.80
2023-01-29T08:30:44.142Z,7.20
2023-01-29T08:33:11.981Z,6.30
2023-01-29T08:35:41.154Z,5.30
2023-01-29T08:38:09.460Z,5.00
2023-01-29T08:40:37.720Z,4.80
2023-01-29T08:43:09.168Z,4.90
2023-01-29T08:45:41.185Z,6.20
2023-01-29T08:48:09.768Z,8.00
2023-01-29T08:50:38.268Z,7.40
2023-01-29T08:53:08.787Z,7.90
2023-01-29T08:55:39.407Z,7.60
2023-01-29T08:58:10.613Z,6.80
2023-01-29T09:00:38.940Z,6.80
2023-01-29T09:03:08.140Z,6.20
2023-01-29T09:05:39.086Z,5.00
2023-01-29T09:08:09.973Z,2.90
2023-01-29T09:10:40.000Z,4.10
2023-01-29T09:13:07.686Z,4.90
2023-01-29T09:15:35.351Z,1.90
2023-01-29T09:18:05.039Z,5.60
2023-01-29T09:20:33.373Z,7.20
2023-01-29T09:23:07.229Z,6.60
2023-01-29T09:25:35.930Z,6.10
2023-01-29T09:28:04.225Z,7.60
2023-01-29T09:30:33.454Z,6.10
2023-01-29T09:33:07.171Z,7.00
2023-01-29T09:35:34.983Z,5.20
2023-01-29T09:38:02.746Z,5.10
2023-01-29T09:41:02.439Z,5.50
2023-01-29T09:44:04.871Z,3.70
2023-01-29T09:46:43.901Z,4.00
2023-01-29T09:49:41.755Z,3.10
2023-01-29T09:52:25.068Z,3.10
2023-01-29T09:55:35.410Z,3.20
2023-01-29T09:58:31.679Z,7.00
2023-01-29T10:01:33.028Z,6.40
2023-01-29T10:04:28.581Z,4.80
2023-01-29T10:07:16.261Z,6.10
2023-01-29T10:10:26.903Z,5.10
2023-01-29T10:13:06.681Z,5.70
2023-01-29T10:16:18.813Z,6.30
2023-01-29T10:19:17.143Z,5.20
2023-01-29T10:21:54.060Z,4.30
2023-01-29T10:24:50.433Z,3.40
2023-01-29T10:27:19.310Z,2.90
2023-01-29T10:29:53.921Z,2.80
2023-01-29T10:32:26.189Z,2.70
2023-01-29T10:35:05.009Z,3.30
2023-01-29T10:37:43.834Z,4.30
2023-01-29T10:40:23.237Z,3.10
2023-01-29T10:43:32.526Z,4.90
2023-01-29T10:46:46.295Z,6.60
2023-01-29T10:50:05.701Z,5.40
2023-01-29T10:53:18.145Z,4.90
2023-01-29T10:56:05.832Z,7.10
2023-01-29T10:58:52.137Z,6.10
2023-01-29T11:01:19.907Z,5.10
2023-01-29T11:04:00.244Z,5.00
2023-01-29T11:06:35.973Z,4.20
2023-01-29T11:09:12.983Z,4.20
2023-01-29T11:11:50.793Z,5.20
2023-01-29T11:14:31.651Z,3.40
2023-01-29T11:16:59.803Z,3.90
2023-01-29T11:19:38.509Z,3.00
2023-01-29T11:22:19.843Z,4.60
2023-01-29T11:25:08.576Z,4.70
2023-01-29T11:27:45.694Z,5.60
2023-01-29T11:30:27.149Z,6.70
2023-01-29T11:33:20.300Z,8.10
2023-01-29T11:35:48.429Z,6.30
2023-01-29T11:38:16.136Z,6.20
2023-01-29T11:40:45.196Z,7.10
2023-01-29T11:43:31.397Z,6.60
2023-01-29T11:46:12.994Z,6.00
2023-01-29T11:48:47.855Z,4.90
2023-01-29T11:51:27.942Z,4.10
2023-01-29T11:54:03.136Z,4.20
2023-01-29T11:56:44.307Z,5.30
2023-01-29T11:59:42.757Z,4.00
2023-01-29T12:02:26.723Z,7.20
2023-01-29T12:04:59.878Z,5.80
2023-01-29T12:07:28.866Z,5.00
2023-01-29T12:10:00.140Z,3.80
2023-01-29T12:12:37.936Z,6.00
2023-01-29T12:15:21.575Z,7.50
2023-01-29T12:17:59.005Z,7.20
2023-01-29T12:20:52.962Z,7.10
2023-01-29T12:23:38.587Z,7.50
2023-01-29T12:26:15.828Z,6.80
2023-01-29T12:29:14.448Z,5.30
2023-01-29T12:32:24.945Z,5.60
2023-01-29T12:35:05.170Z,4.30
2023-01-29T12:37:49.642Z,5.70
2023-01-29T12:40:20.300Z,6.40
2023-01-29T12:43:02.553Z,5.40
2023-01-29T12:45:32.811Z,3.50
2023-01-29T12:48:14.291Z,5.20
2023-01-29T12:50:44.389Z,4.80
2023-01-29T12:53:37.398Z,5.70
2023-01-29T12:56:58.154Z,5.10
2023-01-29T12:59:42.741Z,5.70
2023-01-29T13:02:37.818Z,6.00
2023-01-29T13:05:34.547Z,8.10
2023-01-29T13:08:31.579Z,9.10
2023-01-29T13:11:10.580Z,9.40
2023-01-29T13:13:56.656Z,7.90
2023-01-29T13:16:40.969Z,8.20
2023-01-29T13:19:27.462Z,8.90
2023-01-29T13:22:01.366Z,8.20
2023-01-29T13:24:39.922Z,9.30
2023-01-29T13:27:20.130Z,9.20
2023-01-29T13:29:48.805Z,9.10
2023-01-29T13:32:27.236Z,9.20
2023-01-29T13:35:13.009Z,10.50
2023-01-29T13:37:50.209Z,9.10
2023-01-29T13:40:27.738Z,10.40
2023-01-29T13:43:00.186Z,10.50
2023-01-29T13:45:45.263Z,7.20
2023-01-29T13:48:38.086Z,6.70
2023-01-29T13:51:16.989Z,8.50
2023-01-29T13:53:56.414Z,8.90
2023-01-29T13:56:33.364Z,10.00
2023-01-29T13:59:06.166Z,7.00
2023-01-29T14:01:49.423Z,8.70
2023-01-29T14:04:24.039Z,10.00
2023-01-29T14:06:57.575Z,11.30
2023-01-29T14:09:38.743Z,11.70
2023-01-29T14:12:21.426Z,10.00
2023-01-29T14:14:49.107Z,9.40
2023-01-29T14:17:19.974Z,9.10
2023-01-29T14:19:52.041Z,9.50
2023-01-29T14:22:27.626Z,11.30
2023-01-29T14:25:01.724Z,10.40
2023-01-29T14:27:30.310Z,8.90
2023-01-29T14:30:09.825Z,7.10
2023-01-29T14:32:40.552Z,6.60
2023-01-29T14:35:25.317Z,9.00
2023-01-29T14:38:00.173Z,9.80
2023-01-29T14:40:30.944Z,12.10
2023-01-29T14:43:02.882Z,9.20
2023-01-29T14:45:41.900Z,8.00
2023-01-29T14:48:09.530Z,11.80
2023-01-29T14:50:37.860Z,14.20
2023-01-29T14:53:33.303Z,14.20
2023-01-29T14:56:14.554Z,11.50
2023-01-29T14:58:50.422Z,11.50
2023-01-29T15:01:25.709Z,11.20
2023-01-29T15:04:25.944Z,13.40
2023-01-29T15:07:06.955Z,10.00
2023-01-29T15:10:01.383Z,9.70
2023-01-29T15:13:00.493Z,9.50
2023-01-29T15:15:34.073Z,8.00
2023-01-29T15:18:31.488Z,8.40
2023-01-29T15:21:12.688Z,12.40
2023-01-29T15:23:41.658Z,11.10
2023-01-29T15:26:20.931Z,7.20
2023-01-29T15:29:05.120Z,7.00
2023-01-29T15:31:35.542Z,5.00
2023-01-29T15:34:07.691Z,6.50
2023-01-29T15:36:37.330Z,10.40
2023-01-29T15:39:24.468Z,10.20
2023-01-29T15:42:12.953Z,10.40
2023-01-29T15:44:46.063Z,9.40
2023-01-29T15:47:16.481Z,8.60
2023-01-29T15:49:47.013Z,8.20
2023-01-29T15:52:28.646Z,8.90
2023-01-29T15:55:04.758Z,7.70
2023-01-29T15:57:45.177Z,6.50
2023-01-29T16:00:27.645Z,6.40
2023-01-29T16:03:01.499Z,9.00
2023-01-29T16:05:32.880Z,8.90
2023-01-29T16:08:01.594Z,5.90
2023-01-29T16:10:32.694Z,5.00
2023-01-29T16:13:01.259Z,5.30
2023-01-29T16:15:38.475Z,8.00
2023-01-29T16:18:28.595Z,7.60
2023-01-29T16:21:00.455Z,11.20
2023-01-29T16:23:42.070Z,12.00
2023-01-29T16:26:19.439Z,12.10
2023-01-29T16:28:48.466Z,11.60
2023-01-29T16:31:29.402Z,8.60
2023-01-29T16:33:59.619Z,8.60
2023-01-29T16:36:28.010Z,8.50
2023-01-29T16:39:01.185Z,7.30
2023-01-29T16:41:36.179Z,10.10
2023-01-29T16:44:32.169Z,7.90
2023-01-29T16:47:12.948Z,8.10
2023-01-29T16:49:40.636Z,5.70
2023-01-29T16:52:23.270Z,6.50
2023-01-29T16:54:51.372Z,7.90
2023-01-29T16:57:30.434Z,9.40
2023-01-29T17:00:03.294Z,10.80
2023-01-29T17:02:38.521Z,9.40
2023-01-29T17:05:21.110Z,9.40
2023-01-29T17:07:49.917Z,9.70
2023-01-29T17:10:22.146Z,9.70
2023-01-29T17:12:57.918Z,9.10
2023-01-29T17:15:49.589Z,9.00
2023-01-29T17:18:23.119Z,8.10
2023-01-29T17:20:54.828Z,9.00
2023-01-29T17:23:23.241Z,6.30
2023-01-29T17:25:51.927Z,8.20
2023-01-29T17:28:19.754Z,10.70
2023-01-29T17:31:00.168Z,13.20
2023-01-29T17:33:34.818Z,13.00
2023-01-29T17:36:02.603Z,12.60
2023-01-29T17:38:30.395Z,10.90
2023-01-29T17:41:39.909Z,12.30
2023-01-29T17:44:07.649Z,10.80
2023-01-29T17:46:35.435Z,11.20
2023-01-29T17:49:04.562Z,9.40
2023-01-29T17:51:32.259Z,12.20
2023-01-29T17:53:59.920Z,12.20
2023-01-29T17:56:27.781Z,9.70
2023-01-29T17:58:55.798Z,8.40
2023-01-29T18:01:23.822Z,11.30
2023-01-29T18:03:52.076Z,10.80
2023-01-29T18:06:30.002Z,10.30
2023-01-29T18:08:58.578Z,10.40
2023-01-29T18:11:26.755Z,10.10
2023-01-29T18:13:57.269Z,10.80
2023-01-29T18:16:26.367Z,11.70
2023-01-29T18:18:54.905Z,11.40
2023-01-29T18:21:22.697Z,10.30
2023-01-29T18:23:51.257Z,8.90
2023-01-29T18:26:19.394Z,10.50
2023-01-29T18:28:49.733Z,9.90
2023-01-29T18:31:17.498Z,10.30
2023-01-29T18:33:45.339Z,11.10
2023-01-29T18:36:13.636Z,11.80
2023-01-29T18:38:43.725Z,10.30
2023-01-29T18:41:11.587Z,10.80
2023-01-29T18:43:41.909Z,9.90
2023-01-29T18:46:10.293Z,11.20
2023-01-29T18:48:38.018Z,10.60
2023-01-29T18:51:06.397Z,9.50
2023-01-29T18:53:34.145Z,10.30
2023-01-29T18:56:05.651Z,9.90
2023-01-29T18:58:36.633Z,10.00
2023-01-29T19:01:11.581Z,8.00
2023-01-29T19:03:41.616Z,11.00
2023-01-29T19:06:12.185Z,12.60
2023-01-29T19:08:40.868Z,15.90
2023-01-29T19:11:09.027Z,14.70
2023-01-29T19:13:38.102Z,14.40
2023-01-29T19:16:09.061Z,12.80
2023-01-29T19:18:37.410Z,12.40
2023-01-29T19:21:12.299Z,12.10
2023-01-29T19:23:41.708Z,11.20
2023-01-29T19:26:10.536Z,13.00
2023-01-29T19:28:40.852Z,14.70
2023-01-29T19:31:11.459Z,12.00
2023-01-29T19:33:39.533Z,8.80
2023-01-29T19:36:07.884Z,13.10
2023-01-29T19:38:39.014Z,18.00
2023-01-29T19:41:07.616Z,17.00
2023-01-29T19:43:38.355Z,14.20
2023-01-29T19:46:07.583Z,14.00
2023-01-29T19:48:38.221Z,13.50
2023-01-29T19:51:10.073Z,13.80
2023-01-29T19:53:40.088Z,11.90
2023-01-29T19:56:11.901Z,11.60
2023-01-29T19:58:40.356Z,11.90
2023-01-29T20:01:15.717Z,10.00
2023-01-29T20:03:46.605Z,11.20
2023-01-29T20:06:18.799Z,13.90
2023-01-29T20:08:46.737Z,15.40
2023-01-29T20:11:18.229Z,14.60
2023-01-29T20:13:52.137Z,16.20
2023-01-29T20:16:21.310Z,16.70
2023-01-29T20:18:49.039Z,14.00
2023-01-29T20:21:20.700Z,15.20
2023-01-29T20:23:51.306Z,15.20
2023-01-29T20:26:20.182Z,15.60
2023-01-29T20:28:48.932Z,14.30
2023-01-29T20:31:17.100Z,11.10
2023-01-29T20:33:44.971Z,15.20
2023-01-29T20:36:14.758Z,15.80
2023-01-29T20:38:42.619Z,12.40
2023-01-29T20:41:16.764Z,14.50
2023-01-29T20:43:47.061Z,13.90
2023-01-29T20:46:15.173Z,12.80
2023-01-29T20:48:42.996Z,11.20
2023-01-29T20:51:15.618Z,12.80
2023-01-29T20:53:46.839Z,13.70
2023-01-29T20:56:16.411Z,13.50
2023-01-29T20:58:46.697Z,9.20
2023-01-29T21:01:20.758Z,11.60
2023-01-29T21:03:48.631Z,13.50
2023-01-29T21:06:16.395Z,16.70
2023-01-29T21:08:44.173Z,16.60
2023-01-29T21:11:14.432Z,15.10
2023-01-29T21:13:44.054Z,13.70
2023-01-29T21:16:12.063Z,15.20
2023-01-29T21:18:39.932Z,10.90
2023-01-29T21:21:07.685Z,14.10
2023-01-29T21:23:35.550Z,17.70
2023-01-29T21:26:05.616Z,14.30
2023-01-29T21:28:34.552Z,14.00
2023-01-29T21:31:10.902Z,13.80
2023-01-29T21:33:38.835Z,16.00
2023-01-29T21:36:07.959Z,15.90
2023-01-29T21:38:36.125Z,15.60
2023-01-29T21:41:08.865Z,17.10
2023-01-29T21:43:37.395Z,17.30
2023-01-29T21:46:14.173Z,18.00
2023-01-29T21:48:41.979Z,18.20
2023-01-29T21:51:09.838Z,21.10
2023-01-29T21:53:37.749Z,20.00
2023-01-29T21:56:06.308Z,16.10
2023-01-29T21:58:34.069Z,19.40
2023-01-29T22:01:28.036Z,21.80
2023-01-29T22:03:49.541Z,28.20
2023-01-29T22:06:19.645Z,24.40
2023-01-29T22:08:49.581Z,22.00
2023-01-29T22:11:17.997Z,20.10
2023-01-29T22:13:45.751Z,21.60
2023-01-29T22:16:13.466Z,19.10
2023-01-29T22:18:41.185Z,17.70
2023-01-29T22:21:08.959Z,19.10
2023-01-29T22:23:36.743Z,17.10
2023-01-29T22:26:06.913Z,16.60
2023-01-29T22:28:35.389Z,15.80
2023-01-29T22:31:06.591Z,16.70
2023-01-29T22:33:34.937Z,17.90
2023-01-29T22:36:03.666Z,17.80
2023-01-29T22:38:31.634Z,17.50
2023-01-29T22:41:00.945Z,16.70
2023-01-29T22:43:29.329Z,16.50
2023-01-29T22:45:57.193Z,13.90
2023-01-29T22:48:25.521Z,14.60
2023-01-29T22:51:19.579Z,11.80
2023-01-29T22:53:54.132Z,12.70
2023-01-29T22:56:25.804Z,11.00
2023-01-29T22:58:57.491Z,13.80
2023-01-29T23:01:29.431Z,14.70
2023-01-29T23:03:57.910Z,13.80
2023-01-29T23:06:25.704Z,13.20
2023-01-29T23:08:53.423Z,14.00
2023-01-29T23:11:23.587Z,14.80
2023-01-29T23:13:54.326Z,14.20
2023-01-29T23:16:27.962Z,12.80
2023-01-29T23:18:57.189Z,12.50
2023-01-29T23:21:26.180Z,13.30
2023-01-29T23:23:55.533Z,12.20
2023-01-29T23:26:42.387Z,13.50
2023-01-29T23:29:10.515Z,13.00
2023-01-29T23:31:39.332Z,12.70
2023-01-29T23:34:07.115Z,12.30
2023-01-29T23:36:34.999Z,11.20
2023-01-29T23:39:03.067Z,11.50
2023-01-29T23:41:30.770Z,10.20
2023-01-29T23:43:58.519Z,7.10
2023-01-29T23:46:26.277Z,9.20
2023-01-29T23:48:53.933Z,9.90
2023-01-29T23:51:21.577Z,9.10
2023-01-29T23:53:49.433Z,10.30
2023-01-29T23:56:17.518Z,14.10
2023-01-29T23:58:45.716Z,13.50
